sensor_id;sensor_type;location;lat;lon;timestamp;temperature;humidity
10386;DHT22;34307;51.332;12.334;2023-05-07T00:02:12;9.70;99.90
10386;DHT22;34307;51.332;12.334;2023-05-07T00:04:42;9.70;99.90
10386;DHT22;34307;51.332;12.334;2023-05-07T00:07:14;9.70;99.90
10386;DHT22;34307;51.332;12.334;2023-05-07T00:09:42;9.60;99.90
10386;DHT22;34307;51.332;12.334;2023-05-07T00:12:12;9.60;99.90
10386;DHT22;34307;51.332;12.334;2023-05-07T00:14:44;9.50;99.90
10386;DHT22;34307;51.332;12.334;2023-05-07T00:17:13;9.40;99.90
10386;DHT22;34307;51.332;12.334;2023-05-07T00:20:07;9.40;99.90
10386;DHT22;34307;51.332;12.334;2023-05-07T00:22:56;9.40;99.90
10386;DHT22;34307;51.332;12.334;2023-05-07T00:25:25;9.50;99.90
10386;DHT22;34307;51.332;12.334;2023-05-07T00:27:54;9.40;99.90
10386;DHT22;34307;51.332;12.334;2023-05-07T00:30:24;9.50;99.90
10386;DHT22;34307;51.332;12.334;2023-05-07T00:32:53;9.50;99.90
10386;DHT22;34307;51.332;12.334;2023-05-07T00:35:25;9.50;99.90
10386;DHT22;34307;51.332;12.334;2023-05-07T00:37:53;9.50;99.90
10386;DHT22;34307;51.332;12.334;2023-05-07T00:40:22;9.50;99.90
10386;DHT22;34307;51.332;12.334;2023-05-07T00:42:51;9.50;99.90
10386;DHT22;34307;51.332;12.334;2023-05-07T00:45:26;9.50;99.90
10386;DHT22;34307;51.332;12.334;2023-05-07T00:47:55;9.50;99.90
10386;DHT22;34307;51.332;12.334;2023-05-07T00:50:28;9.50;99.90
10386;DHT22;34307;51.332;12.334;2023-05-07T00:52:57;9.50;99.90
10386;DHT22;34307;51.332;12.334;2023-05-07T00:55:27;9.50;99.90
10386;DHT22;34307;51.332;12.334;2023-05-07T00:57:55;9.50;99.90
10386;DHT22;34307;51.332;12.334;2023-05-07T01:00:36;9.50;99.90
10386;DHT22;34307;51.332;12.334;2023-05-07T01:03:09;9.50;99.90
10386;DHT22;34307;51.332;12.334;2023-05-07T01:05:42;9.40;99.90
10386;DHT22;34307;51.332;12.334;2023-05-07T01:08:12;9.40;99.90
10386;DHT22;34307;51.332;12.334;2023-05-07T01:10:42;9.40;99.90
10386;DHT22;34307;51.332;12.334;2023-05-07T01:13:12;9.40;99.90
10386;DHT22;34307;51.332;12.334;2023-05-07T01:15:43;9.40;99.90
10386;DHT22;34307;51.332;12.334;2023-05-07T01:18:18;9.40;99.90
10386;DHT22;34307;51.332;12.334;2023-05-07T01:20:49;9.40;99.90
10386;DHT22;34307;51.332;12.334;2023-05-07T01:23:20;9.40;99.90
10386;DHT22;34307;51.332;12.334;2023-05-07T01:25:52;9.40;99.90
10386;DHT22;34307;51.332;12.334;2023-05-07T01:28:21;9.40;99.90
10386;DHT22;34307;51.332;12.334;2023-05-07T01:30:54;9.40;99.90
10386;DHT22;34307;51.332;12.334;2023-05-07T01:33:26;9.40;99.90
10386;DHT22;34307;51.332;12.334;2023-05-07T01:35:59;9.30;99.90
10386;DHT22;34307;51.332;12.334;2023-05-07T01:38:32;9.30;99.90
10386;DHT22;34307;51.332;12.334;2023-05-07T01:41:01;9.30;99.90
10386;DHT22;34307;51.332;12.334;2023-05-07T01:43:29;9.30;99.90
10386;DHT22;34307;51.332;12.334;2023-05-07T01:45:59;9.30;99.90
10386;DHT22;34307;51.332;12.334;2023-05-07T01:48:30;9.30;99.90
10386;DHT22;34307;51.332;12.334;2023-05-07T01:51:05;9.30;99.90
10386;DHT22;34307;51.332;12.334;2023-05-07T01:53:37;9.30;99.90
10386;DHT22;34307;51.332;12.334;2023-05-07T01:56:08;9.30;99.90
10386;DHT22;34307;51.332;12.334;2023-05-07T01:58:38;9.30;99.90
10386;DHT22;34307;51.332;12.334;2023-05-07T02:01:09;9.30;99.90
10386;DHT22;34307;51.332;12.334;2023-05-07T02:03:41;9.30;99.90
10386;DHT22;34307;51.332;12.334;2023-05-07T02:06:09;9.30;99.90
10386;DHT22;34307;51.332;12.334;2023-05-07T02:08:41;9.30;99.90
10386;DHT22;34307;51.332;12.334;2023-05-07T02:11:10;9.40;99.90
10386;DHT22;34307;51.332;12.334;2023-05-07T02:13:41;9.40;99.90
10386;DHT22;34307;51.332;12.334;2023-05-07T02:16:11;9.40;99.90
10386;DHT22;34307;51.332;12.334;2023-05-07T02:18:43;9.30;99.90
10386;DHT22;34307;51.332;12.334;2023-05-07T02:21:12;9.30;99.90
10386;DHT22;34307;51.332;12.334;2023-05-07T02:23:41;9.30;99.90
10386;DHT22;34307;51.332;12.334;2023-05-07T02:26:10;9.30;99.90
10386;DHT22;34307;51.332;12.334;2023-05-07T02:28:38;9.30;99.90
10386;DHT22;34307;51.332;12.334;2023-05-07T02:31:06;9.30;99.90
10386;DHT22;34307;51.332;12.334;2023-05-07T02:33:35;9.30;99.90
10386;DHT22;34307;51.332;12.334;2023-05-07T02:36:07;9.30;99.90
10386;DHT22;34307;51.332;12.334;2023-05-07T02:38:37;9.30;99.90
10386;DHT22;34307;51.332;12.334;2023-05-07T02:41:06;9.30;99.90
10386;DHT22;34307;51.332;12.334;2023-05-07T02:43:36;9.30;99.90
10386;DHT22;34307;51.332;12.334;2023-05-07T02:46:08;9.20;99.90
10386;DHT22;34307;51.332;12.334;2023-05-07T02:48:37;9.30;99.90
10386;DHT22;34307;51.332;12.334;2023-05-07T02:51:05;9.30;99.90
10386;DHT22;34307;51.332;12.334;2023-05-07T02:53:36;9.30;99.90
10386;DHT22;34307;51.332;12.334;2023-05-07T02:56:08;9.20;99.90
10386;DHT22;34307;51.332;12.334;2023-05-07T02:58:40;9.20;99.90
10386;DHT22;34307;51.332;12.334;2023-05-07T03:01:10;9.20;99.90
10386;DHT22;34307;51.332;12.334;2023-05-07T03:03:39;9.20;99.90
10386;DHT22;34307;51.332;12.334;2023-05-07T03:06:11;9.20;99.90
10386;DHT22;34307;51.332;12.334;2023-05-07T03:08:40;9.20;99.90
10386;DHT22;34307;51.332;12.334;2023-05-07T03:11:10;9.20;99.90
10386;DHT22;34307;51.332;12.334;2023-05-07T03:13:38;9.20;99.90
10386;DHT22;34307;51.332;12.334;2023-05-07T03:16:07;9.20;99.90
10386;DHT22;34307;51.332;12.334;2023-05-07T03:18:36;9.20;99.90
10386;DHT22;34307;51.332;12.334;2023-05-07T03:21:06;9.10;99.90
10386;DHT22;34307;51.332;12.334;2023-05-07T03:23:36;9.10;99.90
10386;DHT22;34307;51.332;12.334;2023-05-07T03:26:13;9.20;99.90
10386;DHT22;34307;51.332;12.334;2023-05-07T03:28:41;9.20;99.90
10386;DHT22;34307;51.332;12.334;2023-05-07T03:31:11;9.30;99.90
10386;DHT22;34307;51.332;12.334;2023-05-07T03:33:50;9.20;99.90
10386;DHT22;34307;51.332;12.334;2023-05-07T03:36:20;9.20;99.90
10386;DHT22;34307;51.332;12.334;2023-05-07T03:38:49;9.20;99.90
10386;DHT22;34307;51.332;12.334;2023-05-07T03:41:21;9.20;99.90
10386;DHT22;34307;51.332;12.334;2023-05-07T03:43:54;9.10;99.90
10386;DHT22;34307;51.332;12.334;2023-05-07T03:46:23;9.10;99.90
10386;DHT22;34307;51.332;12.334;2023-05-07T03:48:54;9.20;99.90
10386;DHT22;34307;51.332;12.334;2023-05-07T03:51:22;9.10;99.90
10386;DHT22;34307;51.332;12.334;2023-05-07T03:53:51;9.20;99.90
10386;DHT22;34307;51.332;12.334;2023-05-07T03:56:22;9.20;99.90
10386;DHT22;34307;51.332;12.334;2023-05-07T03:58:53;9.30;99.90
10386;DHT22;34307;51.332;12.334;2023-05-07T04:01:21;9.30;99.90
10386;DHT22;34307;51.332;12.334;2023-05-07T04:03:50;9.30;99.90
10386;DHT22;34307;51.332;12.334;2023-05-07T04:06:18;9.40;99.90
10386;DHT22;34307;51.332;12.334;2023-05-07T04:08:47;9.40;99.90
10386;DHT22;34307;51.332;12.334;2023-05-07T04:11:18;9.40;99.90
10386;DHT22;34307;51.332;12.334;2023-05-07T04:13:48;9.40;99.90
10386;DHT22;34307;51.332;12.334;2023-05-07T04:16:16;9.40;99.90
10386;DHT22;34307;51.332;12.334;2023-05-07T04:18:45;9.40;99.90
10386;DHT22;34307;51.332;12.334;2023-05-07T04:21:14;9.40;99.90
10386;DHT22;34307;51.332;12.334;2023-05-07T04:23:43;9.40;99.90
10386;DHT22;34307;51.332;12.334;2023-05-07T04:26:12;9.40;99.90
10386;DHT22;34307;51.332;12.334;2023-05-07T04:28:41;9.40;99.90
10386;DHT22;34307;51.332;12.334;2023-05-07T04:31:11;9.50;99.90
10386;DHT22;34307;51.332;12.334;2023-05-07T04:33:39;9.60;99.90
10386;DHT22;34307;51.332;12.334;2023-05-07T04:36:08;9.60;99.90
10386;DHT22;34307;51.332;12.334;2023-05-07T04:38:37;9.60;99.90
10386;DHT22;34307;51.332;12.334;2023-05-07T04:41:09;9.60;99.90
10386;DHT22;34307;51.332;12.334;2023-05-07T04:43:39;9.60;99.90
10386;DHT22;34307;51.332;12.334;2023-05-07T04:46:10;9.70;99.90
10386;DHT22;34307;51.332;12.334;2023-05-07T04:48:39;9.60;99.90
10386;DHT22;34307;51.332;12.334;2023-05-07T04:51:07;9.70;99.90
10386;DHT22;34307;51.332;12.334;2023-05-07T04:53:35;9.60;99.90
10386;DHT22;34307;51.332;12.334;2023-05-07T04:56:03;9.60;99.90
10386;DHT22;34307;51.332;12.334;2023-05-07T04:58:32;9.60;99.90
10386;DHT22;34307;51.332;12.334;2023-05-07T05:01:03;9.60;99.90
10386;DHT22;34307;51.332;12.334;2023-05-07T05:03:34;9.60;99.90
10386;DHT22;34307;51.332;12.334;2023-05-07T05:06:03;9.60;99.90
10386;DHT22;34307;51.332;12.334;2023-05-07T05:08:32;9.70;99.90
10386;DHT22;34307;51.332;12.334;2023-05-07T05:11:01;9.70;99.90
10386;DHT22;34307;51.332;12.334;2023-05-07T05:13:29;9.70;99.90
10386;DHT22;34307;51.332;12.334;2023-05-07T05:15:58;9.70;99.90
10386;DHT22;34307;51.332;12.334;2023-05-07T05:18:27;9.60;99.90
10386;DHT22;34307;51.332;12.334;2023-05-07T05:20:57;9.70;99.90
10386;DHT22;34307;51.332;12.334;2023-05-07T05:23:26;9.60;99.90
10386;DHT22;34307;51.332;12.334;2023-05-07T05:25:56;9.60;99.90
10386;DHT22;34307;51.332;12.334;2023-05-07T05:28:27;9.60;99.90
10386;DHT22;34307;51.332;12.334;2023-05-07T05:30:55;9.70;99.90
10386;DHT22;34307;51.332;12.334;2023-05-07T05:33:24;9.70;99.90
10386;DHT22;34307;51.332;12.334;2023-05-07T05:35:53;9.70;99.90
10386;DHT22;34307;51.332;12.334;2023-05-07T05:38:23;9.70;99.90
10386;DHT22;34307;51.332;12.334;2023-05-07T05:40:51;9.60;99.90
10386;DHT22;34307;51.332;12.334;2023-05-07T05:43:22;9.70;99.90
10386;DHT22;34307;51.332;12.334;2023-05-07T05:45:51;9.80;99.90
10386;DHT22;34307;51.332;12.334;2023-05-07T05:48:20;9.80;99.90
10386;DHT22;34307;51.332;12.334;2023-05-07T05:50:48;9.90;99.90
10386;DHT22;34307;51.332;12.334;2023-05-07T05:53:17;9.80;99.90
10386;DHT22;34307;51.332;12.334;2023-05-07T05:55:48;9.90;99.90
10386;DHT22;34307;51.332;12.334;2023-05-07T05:58:16;9.90;99.90
10386;DHT22;34307;51.332;12.334;2023-05-07T06:00:46;10.00;99.90
10386;DHT22;34307;51.332;12.334;2023-05-07T06:03:14;10.10;99.90
10386;DHT22;34307;51.332;12.334;2023-05-07T06:05:44;10.20;99.90
10386;DHT22;34307;51.332;12.334;2023-05-07T06:08:15;10.20;99.90
10386;DHT22;34307;51.332;12.334;2023-05-07T06:10:44;10.20;99.90
10386;DHT22;34307;51.332;12.334;2023-05-07T06:13:13;10.20;99.90
10386;DHT22;34307;51.332;12.334;2023-05-07T06:15:42;10.20;99.90
10386;DHT22;34307;51.332;12.334;2023-05-07T06:18:10;10.20;99.90
10386;DHT22;34307;51.332;12.334;2023-05-07T06:20:39;10.20;99.90
10386;DHT22;34307;51.332;12.334;2023-05-07T06:23:07;10.20;99.90
10386;DHT22;34307;51.332;12.334;2023-05-07T06:25:47;10.20;99.90
10386;DHT22;34307;51.332;12.334;2023-05-07T06:28:32;10.40;99.90
10386;DHT22;34307;51.332;12.334;2023-05-07T06:31:14;10.40;99.90
10386;DHT22;34307;51.332;12.334;2023-05-07T06:33:57;10.60;99.90
10386;DHT22;34307;51.332;12.334;2023-05-07T06:36:32;10.70;99.90
10386;DHT22;34307;51.332;12.334;2023-05-07T06:39:00;10.70;99.90
10386;DHT22;34307;51.332;12.334;2023-05-07T06:41:29;10.70;99.90
10386;DHT22;34307;51.332;12.334;2023-05-07T06:43:58;10.70;99.90
10386;DHT22;34307;51.332;12.334;2023-05-07T06:46:26;10.80;99.90
10386;DHT22;34307;51.332;12.334;2023-05-07T06:48:57;10.80;99.90
10386;DHT22;34307;51.332;12.334;2023-05-07T06:51:25;10.90;99.90
10386;DHT22;34307;51.332;12.334;2023-05-07T06:53:53;10.70;99.90
10386;DHT22;34307;51.332;12.334;2023-05-07T06:56:21;10.80;99.90
10386;DHT22;34307;51.332;12.334;2023-05-07T06:58:49;10.70;99.90
10386;DHT22;34307;51.332;12.334;2023-05-07T07:01:18;10.80;99.90
10386;DHT22;34307;51.332;12.334;2023-05-07T07:03:48;10.70;99.90
10386;DHT22;34307;51.332;12.334;2023-05-07T07:06:17;10.70;99.90
10386;DHT22;34307;51.332;12.334;2023-05-07T07:08:46;10.70;99.90
10386;DHT22;34307;51.332;12.334;2023-05-07T07:11:16;10.60;99.90
10386;DHT22;34307;51.332;12.334;2023-05-07T07:13:44;10.60;99.90
10386;DHT22;34307;51.332;12.334;2023-05-07T07:16:12;10.60;99.90
10386;DHT22;34307;51.332;12.334;2023-05-07T07:18:43;10.70;99.90
10386;DHT22;34307;51.332;12.334;2023-05-07T07:21:12;10.80;99.90
10386;DHT22;34307;51.332;12.334;2023-05-07T07:23:40;11.00;99.90
10386;DHT22;34307;51.332;12.334;2023-05-07T07:26:08;11.20;99.90
10386;DHT22;34307;51.332;12.334;2023-05-07T07:28:42;11.30;99.90
10386;DHT22;34307;51.332;12.334;2023-05-07T07:31:11;11.40;99.90
10386;DHT22;34307;51.332;12.334;2023-05-07T07:33:39;11.60;99.90
10386;DHT22;34307;51.332;12.334;2023-05-07T07:36:11;11.80;99.90
10386;DHT22;34307;51.332;12.334;2023-05-07T07:38:41;11.90;99.90
10386;DHT22;34307;51.332;12.334;2023-05-07T07:41:09;11.90;99.90
10386;DHT22;34307;51.332;12.334;2023-05-07T07:43:39;11.90;99.90
10386;DHT22;34307;51.332;12.334;2023-05-07T07:46:08;11.70;99.90
10386;DHT22;34307;51.332;12.334;2023-05-07T07:48:36;11.50;99.90
10386;DHT22;34307;51.332;12.334;2023-05-07T07:51:04;11.40;99.90
10386;DHT22;34307;51.332;12.334;2023-05-07T07:53:34;11.40;99.90
10386;DHT22;34307;51.332;12.334;2023-05-07T07:56:02;11.50;99.90
10386;DHT22;34307;51.332;12.334;2023-05-07T07:58:31;11.70;99.90
10386;DHT22;34307;51.332;12.334;2023-05-07T08:00:59;11.90;99.90
10386;DHT22;34307;51.332;12.334;2023-05-07T08:03:28;12.00;99.90
10386;DHT22;34307;51.332;12.334;2023-05-07T08:06:00;12.40;99.90
10386;DHT22;34307;51.332;12.334;2023-05-07T08:08:30;12.70;99.90
10386;DHT22;34307;51.332;12.334;2023-05-07T08:11:14;12.60;99.90
10386;DHT22;34307;51.332;12.334;2023-05-07T08:13:42;12.50;99.90
10386;DHT22;34307;51.332;12.334;2023-05-07T08:16:14;12.30;99.90
10386;DHT22;34307;51.332;12.334;2023-05-07T08:18:43;12.50;99.90
10386;DHT22;34307;51.332;12.334;2023-05-07T08:21:15;12.70;99.90
10386;DHT22;34307;51.332;12.334;2023-05-07T08:23:46;12.70;99.90
10386;DHT22;34307;51.332;12.334;2023-05-07T08:26:17;12.60;99.90
10386;DHT22;34307;51.332;12.334;2023-05-07T08:28:45;12.60;99.90
10386;DHT22;34307;51.332;12.334;2023-05-07T08:31:13;12.20;99.90
10386;DHT22;34307;51.332;12.334;2023-05-07T08:33:41;12.10;99.90
10386;DHT22;34307;51.332;12.334;2023-05-07T08:36:09;12.10;99.90
10386;DHT22;34307;51.332;12.334;2023-05-07T08:38:38;12.20;99.90
10386;DHT22;34307;51.332;12.334;2023-05-07T08:41:11;12.10;99.90
10386;DHT22;34307;51.332;12.334;2023-05-07T08:43:47;12.10;99.90
10386;DHT22;34307;51.332;12.334;2023-05-07T08:46:34;12.10;99.90
10386;DHT22;34307;51.332;12.334;2023-05-07T08:49:02;12.10;99.90
10386;DHT22;34307;51.332;12.334;2023-05-07T08:51:42;12.00;99.90
10386;DHT22;34307;51.332;12.334;2023-05-07T08:54:26;12.00;99.90
10386;DHT22;34307;51.332;12.334;2023-05-07T08:57:11;11.90;99.90
10386;DHT22;34307;51.332;12.334;2023-05-07T09:00:08;12.00;99.90
10386;DHT22;34307;51.332;12.334;2023-05-07T09:02:37;12.10;99.90
10386;DHT22;34307;51.332;12.334;2023-05-07T09:05:26;12.10;99.90
10386;DHT22;34307;51.332;12.334;2023-05-07T09:07:59;12.20;99.90
10386;DHT22;34307;51.332;12.334;2023-05-07T09:10:27;12.20;99.90
10386;DHT22;34307;51.332;12.334;2023-05-07T09:12:56;12.10;99.90
10386;DHT22;34307;51.332;12.334;2023-05-07T09:15:26;12.10;99.90
10386;DHT22;34307;51.332;12.334;2023-05-07T09:17:53;12.20;99.90
10386;DHT22;34307;51.332;12.334;2023-05-07T09:20:22;12.30;99.90
10386;DHT22;34307;51.332;12.334;2023-05-07T09:22:50;12.40;99.90
10386;DHT22;34307;51.332;12.334;2023-05-07T09:25:28;12.30;99.90
10386;DHT22;34307;51.332;12.334;2023-05-07T09:28:00;12.40;99.90
10386;DHT22;34307;51.332;12.334;2023-05-07T09:30:30;12.30;99.90
10386;DHT22;34307;51.332;12.334;2023-05-07T09:33:02;12.20;99.10
10386;DHT22;34307;51.332;12.334;2023-05-07T09:35:37;12.20;99.90
10386;DHT22;34307;51.332;12.334;2023-05-07T09:38:07;12.10;99.90
10386;DHT22;34307;51.332;12.334;2023-05-07T09:40:36;12.20;99.90
10386;DHT22;34307;51.332;12.334;2023-05-07T09:43:11;12.20;99.90
10386;DHT22;34307;51.332;12.334;2023-05-07T09:45:41;12.20;99.90
10386;DHT22;34307;51.332;12.334;2023-05-07T09:48:10;12.20;99.90
10386;DHT22;34307;51.332;12.334;2023-05-07T09:50:48;12.30;99.90
10386;DHT22;34307;51.332;12.334;2023-05-07T09:53:17;12.40;99.90
10386;DHT22;34307;51.332;12.334;2023-05-07T09:55:47;12.60;99.90
10386;DHT22;34307;51.332;12.334;2023-05-07T09:58:16;12.50;99.80
10386;DHT22;34307;51.332;12.334;2023-05-07T10:00:47;12.50;99.90
10386;DHT22;34307;51.332;12.334;2023-05-07T10:03:18;12.40;99.90
10386;DHT22;34307;51.332;12.334;2023-05-07T10:05:47;12.40;99.90
10386;DHT22;34307;51.332;12.334;2023-05-07T10:08:20;12.40;99.90
10386;DHT22;34307;51.332;12.334;2023-05-07T10:10:50;12.60;99.90
10386;DHT22;34307;51.332;12.334;2023-05-07T10:13:19;12.80;98.90
10386;DHT22;34307;51.332;12.334;2023-05-07T10:15:49;12.90;96.90
10386;DHT22;34307;51.332;12.334;2023-05-07T10:18:20;13.20;95.80
10386;DHT22;34307;51.332;12.334;2023-05-07T10:21:00;13.20;93.40
10386;DHT22;34307;51.332;12.334;2023-05-07T10:23:31;13.20;92.50
10386;DHT22;34307;51.332;12.334;2023-05-07T10:26:01;13.10;92.40
10386;DHT22;34307;51.332;12.334;2023-05-07T10:28:33;13.10;93.80
10386;DHT22;34307;51.332;12.334;2023-05-07T10:31:15;13.00;92.70
10386;DHT22;34307;51.332;12.334;2023-05-07T10:33:49;12.90;96.50
10386;DHT22;34307;51.332;12.334;2023-05-07T10:36:19;13.00;97.50
10386;DHT22;34307;51.332;12.334;2023-05-07T10:38:47;13.00;94.40
10386;DHT22;34307;51.332;12.334;2023-05-07T10:41:16;12.90;94.40
10386;DHT22;34307;51.332;12.334;2023-05-07T10:43:47;12.80;95.70
10386;DHT22;34307;51.332;12.334;2023-05-07T10:46:18;12.60;96.80
10386;DHT22;34307;51.332;12.334;2023-05-07T10:49:11;12.40;99.00
10386;DHT22;34307;51.332;12.334;2023-05-07T10:51:42;12.40;99.60
10386;DHT22;34307;51.332;12.334;2023-05-07T10:54:21;12.60;99.90
10386;DHT22;34307;51.332;12.334;2023-05-07T10:56:51;12.70;98.20
10386;DHT22;34307;51.332;12.334;2023-05-07T10:59:39;12.70;97.60
10386;DHT22;34307;51.332;12.334;2023-05-07T11:02:14;12.90;96.20
10386;DHT22;34307;51.332;12.334;2023-05-07T11:04:42;13.00;96.10
10386;DHT22;34307;51.332;12.334;2023-05-07T11:07:27;13.10;92.60
10386;DHT22;34307;51.332;12.334;2023-05-07T11:10:01;13.10;94.20
10386;DHT22;34307;51.332;12.334;2023-05-07T11:12:53;13.00;95.00
10386;DHT22;34307;51.332;12.334;2023-05-07T11:15:39;13.10;96.40
10386;DHT22;34307;51.332;12.334;2023-05-07T11:18:16;13.20;96.20
10386;DHT22;34307;51.332;12.334;2023-05-07T11:20:49;13.30;95.50
10386;DHT22;34307;51.332;12.334;2023-05-07T11:24:28;13.30;94.20
10386;DHT22;34307;51.332;12.334;2023-05-07T11:26:53;13.60;93.50
10386;DHT22;34307;51.332;12.334;2023-05-07T11:29:23;14.10;90.30
10386;DHT22;34307;51.332;12.334;2023-05-07T11:31:51;14.20;78.60
10386;DHT22;34307;51.332;12.334;2023-05-07T11:34:27;14.40;72.30
10386;DHT22;34307;51.332;12.334;2023-05-07T11:36:58;14.60;71.40
10386;DHT22;34307;51.332;12.334;2023-05-07T11:39:35;14.50;70.20
10386;DHT22;34307;51.332;12.334;2023-05-07T11:42:05;14.40;68.90
10386;DHT22;34307;51.332;12.334;2023-05-07T11:45:07;14.10;70.70
10386;DHT22;34307;51.332;12.334;2023-05-07T11:48:06;14.00;76.70
10386;DHT22;34307;51.332;12.334;2023-05-07T11:51:36;13.90;81.70
10386;DHT22;34307;51.332;12.334;2023-05-07T11:56:16;14.00;80.50
10386;DHT22;34307;51.332;12.334;2023-05-07T11:57:39;14.30;72.30
10386;DHT22;34307;51.332;12.334;2023-05-07T12:00:48;14.30;70.30
10386;DHT22;34307;51.332;12.334;2023-05-07T12:03:31;14.30;70.50
10386;DHT22;34307;51.332;12.334;2023-05-07T12:06:35;14.10;73.50
10386;DHT22;34307;51.332;12.334;2023-05-07T12:09:18;13.80;74.20
10386;DHT22;34307;51.332;12.334;2023-05-07T12:12:16;13.80;78.10
10386;DHT22;34307;51.332;12.334;2023-05-07T12:15:16;14.00;73.70
10386;DHT22;34307;51.332;12.334;2023-05-07T12:18:10;14.30;72.20
10386;DHT22;34307;51.332;12.334;2023-05-07T12:21:06;14.40;70.60
10386;DHT22;34307;51.332;12.334;2023-05-07T12:24:13;14.30;69.70
10386;DHT22;34307;51.332;12.334;2023-05-07T12:26:46;14.10;75.50
10386;DHT22;34307;51.332;12.334;2023-05-07T12:29:47;14.40;71.70
10386;DHT22;34307;51.332;12.334;2023-05-07T12:32:30;14.50;62.90
10386;DHT22;34307;51.332;12.334;2023-05-07T12:35:26;14.80;60.80
10386;DHT22;34307;51.332;12.334;2023-05-07T12:38:18;14.90;59.00
10386;DHT22;34307;51.332;12.334;2023-05-07T12:40:59;15.00;58.00
10386;DHT22;34307;51.332;12.334;2023-05-07T12:43:35;15.10;59.40
10386;DHT22;34307;51.332;12.334;2023-05-07T12:46:18;15.50;56.20
10386;DHT22;34307;51.332;12.334;2023-05-07T12:49:05;15.90;55.10
10386;DHT22;34307;51.332;12.334;2023-05-07T12:51:48;15.60;54.60
10386;DHT22;34307;51.332;12.334;2023-05-07T12:54:31;15.40;55.70
10386;DHT22;34307;51.332;12.334;2023-05-07T12:57:25;15.40;56.20
10386;DHT22;34307;51.332;12.334;2023-05-07T13:00:08;15.40;56.80
10386;DHT22;34307;51.332;12.334;2023-05-07T13:02:48;15.70;56.10
10386;DHT22;34307;51.332;12.334;2023-05-07T13:05:40;15.80;54.80
10386;DHT22;34307;51.332;12.334;2023-05-07T13:08:29;15.50;53.10
10386;DHT22;34307;51.332;12.334;2023-05-07T13:11:21;15.50;53.60
10386;DHT22;34307;51.332;12.334;2023-05-07T13:14:00;15.60;52.60
10386;DHT22;34307;51.332;12.334;2023-05-07T13:16:44;15.60;52.60
10386;DHT22;34307;51.332;12.334;2023-05-07T13:19:20;15.80;51.20
10386;DHT22;34307;51.332;12.334;2023-05-07T13:22:01;16.30;52.20
10386;DHT22;34307;51.332;12.334;2023-05-07T13:24:53;16.90;45.90
10386;DHT22;34307;51.332;12.334;2023-05-07T13:27:29;17.10;43.30
10386;DHT22;34307;51.332;12.334;2023-05-07T13:30:07;17.10;42.60
10386;DHT22;34307;51.332;12.334;2023-05-07T13:32:54;17.00;40.90
10386;DHT22;34307;51.332;12.334;2023-05-07T13:35:33;16.80;41.10
10386;DHT22;34307;51.332;12.334;2023-05-07T13:38:10;16.50;42.90
10386;DHT22;34307;51.332;12.334;2023-05-07T13:41:02;16.20;45.00
10386;DHT22;34307;51.332;12.334;2023-05-07T13:43:37;16.30;45.70
10386;DHT22;34307;51.332;12.334;2023-05-07T13:46:18;16.20;46.90
10386;DHT22;34307;51.332;12.334;2023-05-07T13:59:54;16.10;47.80
10386;DHT22;34307;51.332;12.334;2023-05-07T14:02:22;16.10;49.80
10386;DHT22;34307;51.332;12.334;2023-05-07T14:04:51;16.10;49.70
10386;DHT22;34307;51.332;12.334;2023-05-07T14:07:19;16.20;48.70
10386;DHT22;34307;51.332;12.334;2023-05-07T14:09:47;16.30;48.30
10386;DHT22;34307;51.332;12.334;2023-05-07T14:12:16;16.10;47.50
10386;DHT22;34307;51.332;12.334;2023-05-07T14:14:43;15.80;48.30
10386;DHT22;34307;51.332;12.334;2023-05-07T14:17:13;15.70;49.60
10386;DHT22;34307;51.332;12.334;2023-05-07T14:19:44;16.30;49.20
10386;DHT22;34307;51.332;12.334;2023-05-07T14:22:14;16.30;47.60
10386;DHT22;34307;51.332;12.334;2023-05-07T14:24:49;16.60;45.70
10386;DHT22;34307;51.332;12.334;2023-05-07T14:27:32;16.70;45.50
10386;DHT22;34307;51.332;12.334;2023-05-07T14:30:01;16.60;45.70
10386;DHT22;34307;51.332;12.334;2023-05-07T14:32:30;16.90;45.50
10386;DHT22;34307;51.332;12.334;2023-05-07T14:35:02;16.90;45.10
10386;DHT22;34307;51.332;12.334;2023-05-07T14:37:30;16.80;44.10
10386;DHT22;34307;51.332;12.334;2023-05-07T14:39:58;16.70;45.90
10386;DHT22;34307;51.332;12.334;2023-05-07T14:42:27;17.20;44.50
10386;DHT22;34307;51.332;12.334;2023-05-07T14:44:55;16.90;42.10
10386;DHT22;34307;51.332;12.334;2023-05-07T14:47:23;16.60;42.60
10386;DHT22;34307;51.332;12.334;2023-05-07T14:49:53;16.70;43.40
10386;DHT22;34307;51.332;12.334;2023-05-07T14:52:21;16.90;44.60
10386;DHT22;34307;51.332;12.334;2023-05-07T14:54:49;17.20;42.30
10386;DHT22;34307;51.332;12.334;2023-05-07T14:57:17;17.10;40.50
10386;DHT22;34307;51.332;12.334;2023-05-07T14:59:46;17.30;41.50
10386;DHT22;34307;51.332;12.334;2023-05-07T15:02:14;17.10;41.10
10386;DHT22;34307;51.332;12.334;2023-05-07T15:04:42;16.80;41.90
10386;DHT22;34307;51.332;12.334;2023-05-07T15:07:15;17.20;42.30
10386;DHT22;34307;51.332;12.334;2023-05-07T15:09:43;17.10;40.80
10386;DHT22;34307;51.332;12.334;2023-05-07T15:12:11;17.00;41.20
10386;DHT22;34307;51.332;12.334;2023-05-07T15:14:40;16.90;42.20
10386;DHT22;34307;51.332;12.334;2023-05-07T15:17:09;16.60;42.20
10386;DHT22;34307;51.332;12.334;2023-05-07T15:19:37;16.60;45.20
10386;DHT22;34307;51.332;12.334;2023-05-07T15:22:06;16.20;44.70
10386;DHT22;34307;51.332;12.334;2023-05-07T15:24:35;16.00;45.00
10386;DHT22;34307;51.332;12.334;2023-05-07T15:27:03;16.00;46.10
10386;DHT22;34307;51.332;12.334;2023-05-07T15:29:32;16.10;45.80
10386;DHT22;34307;51.332;12.334;2023-05-07T15:32:00;15.90;46.50
10386;DHT22;34307;51.332;12.334;2023-05-07T15:35:02;15.70;47.20
10386;DHT22;34307;51.332;12.334;2023-05-07T15:38:06;15.70;48.20
10386;DHT22;34307;51.332;12.334;2023-05-07T15:40:37;15.50;48.50
10386;DHT22;34307;51.332;12.334;2023-05-07T15:43:09;15.40;49.60
10386;DHT22;34307;51.332;12.334;2023-05-07T15:45:39;15.30;50.50
10386;DHT22;34307;51.332;12.334;2023-05-07T15:48:11;15.40;50.90
10386;DHT22;34307;51.332;12.334;2023-05-07T15:50:40;15.30;50.80
10386;DHT22;34307;51.332;12.334;2023-05-07T15:53:08;15.10;51.00
10386;DHT22;34307;51.332;12.334;2023-05-07T15:55:42;15.00;52.40
10386;DHT22;34307;51.332;12.334;2023-05-07T15:58:15;14.90;52.80
10386;DHT22;34307;51.332;12.334;2023-05-07T16:00:47;14.90;52.80
10386;DHT22;34307;51.332;12.334;2023-05-07T16:03:15;15.10;52.90
10386;DHT22;34307;51.332;12.334;2023-05-07T16:05:45;15.30;53.30
10386;DHT22;34307;51.332;12.334;2023-05-07T16:08:13;15.30;52.10
10386;DHT22;34307;51.332;12.334;2023-05-07T16:10:42;15.50;51.60
10386;DHT22;34307;51.332;12.334;2023-05-07T16:13:11;15.40;51.80